createdAt,value
2023-03-18T00:02:05.003Z,51.57
2023-03-18T00:05:09.641Z,51.46
2023-03-18T00:08:12.686Z,51.41
2023-03-18T00:11:18.602Z,51.28
2023-03-18T00:14:22.541Z,51.45
2023-03-18T00:17:26.133Z,51.77
2023-03-18T00:20:38.693Z,51.75
2023-03-18T00:23:42.192Z,51.82
2023-03-18T00:26:45.181Z,51.80
2023-03-18T00:29:48.115Z,51.88
2023-03-18T00:32:51.258Z,51.88
2023-03-18T00:35:54.918Z,51.92
2023-03-18T00:38:58.518Z,51.80
2023-03-18T00:42:10.475Z,51.77
2023-03-18T00:45:16.231Z,52.00
2023-03-18T00:48:19.367Z,51.94
2023-03-18T00:51:24.665Z,52.00
2023-03-18T00:54:28.272Z,52.04
2023-03-18T00:57:31.340Z,51.95
2023-03-18T01:00:35.845Z,52.07
2023-03-18T01:03:43.573Z,52.24
2023-03-18T01:06:46.684Z,52.39
2023-03-18T01:09:49.973Z,52.32
2023-03-18T01:12:55.890Z,52.40
2023-03-18T01:15:59.201Z,52.33
2023-03-18T01:19:02.196Z,52.51
2023-03-18T01:22:05.257Z,52.44
2023-03-18T01:25:13.330Z,52.51
2023-03-18T01:28:17.265Z,52.46
2023-03-18T01:31:20.389Z,52.55
2023-03-18T01:34:25.172Z,52.59
2023-03-18T01:37:29.051Z,52.74
2023-03-18T01:40:42.002Z,52.82
2023-03-18T01:43:45.983Z,52.84
2023-03-18T01:46:50.957Z,52.81
2023-03-18T01:49:54.525Z,52.83
2023-03-18T01:53:10.744Z,52.82
2023-03-18T01:56:15.910Z,52.72
2023-03-18T01:59:21.758Z,52.76
2023-03-18T02:02:26.248Z,52.85
2023-03-18T02:05:29.727Z,53.13
2023-03-18T02:08:33.309Z,53.08
2023-03-18T02:11:42.787Z,53.12
2023-03-18T02:14:46.745Z,53.13
2023-03-18T02:17:56.201Z,53.34
2023-03-18T02:21:08.436Z,53.34
2023-03-18T02:24:44.521Z,53.45
2023-03-18T02:27:56.350Z,53.40
2023-03-18T02:31:04.115Z,53.54
2023-03-18T02:34:09.062Z,53.64
2023-03-18T02:37:12.368Z,53.75
2023-03-18T02:40:29.303Z,53.74
2023-03-18T02:43:33.751Z,53.79
2023-03-18T02:46:56.031Z,53.80
2023-03-18T02:49:59.686Z,53.93
2023-03-18T02:53:04.799Z,53.85
2023-03-18T02:56:08.474Z,53.92
2023-03-18T02:59:13.183Z,53.99
2023-03-18T03:02:16.755Z,54.12
2023-03-18T03:05:20.684Z,54.06
2023-03-18T03:08:24.494Z,54.20
2023-03-18T03:11:28.573Z,54.28
2023-03-18T03:14:34.948Z,54.43
2023-03-18T03:17:38.115Z,54.48
2023-03-18T03:20:41.948Z,54.56
2023-03-18T03:23:46.165Z,54.60
2023-03-18T03:26:50.105Z,54.60
2023-03-18T03:29:54.097Z,54.74
2023-03-18T03:32:57.653Z,54.86
2023-03-18T03:36:00.809Z,54.89
2023-03-18T03:39:04.320Z,54.89
2023-03-18T03:42:11.378Z,54.97
2023-03-18T03:45:17.200Z,54.96
2023-03-18T03:48:20.720Z,55.02
2023-03-18T03:51:24.113Z,55.07
2023-03-18T03:54:27.753Z,55.14
2023-03-18T03:57:30.890Z,55.25
2023-03-18T04:00:34.139Z,55.29
2023-03-18T04:03:37.253Z,55.29
2023-03-18T04:06:42.851Z,55.22
2023-03-18T04:09:46.783Z,55.16
2023-03-18T04:12:50.090Z,55.10
2023-03-18T04:15:53.270Z,55.09
2023-03-18T04:18:56.333Z,55.04
2023-03-18T04:21:59.721Z,55.11
2023-03-18T04:25:02.841Z,55.10
2023-03-18T04:28:06.011Z,55.10
2023-03-18T04:31:09.919Z,55.26
2023-03-18T04:34:13.710Z,55.25
2023-03-18T04:37:20.080Z,55.29
2023-03-18T04:40:24.894Z,55.37
2023-03-18T04:43:28.514Z,55.40
2023-03-18T04:46:32.695Z,55.49
2023-03-18T04:49:35.972Z,55.62
2023-03-18T04:52:40.930Z,55.82
2023-03-18T04:55:45.048Z,55.88
2023-03-18T04:58:48.924Z,56.03
2023-03-18T05:01:55.213Z,56.17
2023-03-18T05:05:01.326Z,56.26
2023-03-18T05:08:05.733Z,56.29
2023-03-18T05:11:09.059Z,56.41
2023-03-18T05:14:12.565Z,56.55
2023-03-18T05:17:20.025Z,56.68
2023-03-18T05:20:30.227Z,56.84
2023-03-18T05:23:34.426Z,56.85
2023-03-18T05:26:38.885Z,57.05
2023-03-18T05:29:42.471Z,57.06
2023-03-18T05:32:52.877Z,57.27
2023-03-18T05:36:00.887Z,57.47
2023-03-18T05:39:07.691Z,57.55
2023-03-18T05:42:11.617Z,57.64
2023-03-18T05:45:14.888Z,57.62
2023-03-18T05:48:25.712Z,57.63
2023-03-18T05:51:32.314Z,57.65
2023-03-18T05:54:35.934Z,57.79
2023-03-18T05:57:40.408Z,57.69
2023-03-18T06:00:45.769Z,57.81
2023-03-18T06:03:48.859Z,58.01
2023-03-18T06:06:51.879Z,57.92
2023-03-18T06:09:55.101Z,57.80
2023-03-18T06:12:58.148Z,57.70
2023-03-18T06:16:01.552Z,57.33
2023-03-18T06:19:06.760Z,57.01
2023-03-18T06:22:10.042Z,56.88
2023-03-18T06:25:13.066Z,56.60
2023-03-18T06:28:16.112Z,56.42
2023-03-18T06:31:19.876Z,56.20
2023-03-18T06:34:24.099Z,56.13
2023-03-18T06:37:28.346Z,56.09
2023-03-18T06:40:31.657Z,55.90
2023-03-18T06:43:35.595Z,55.61
2023-03-18T06:46:43.763Z,55.47
2023-03-18T06:49:48.229Z,55.31
2023-03-18T06:52:54.187Z,55.13
2023-03-18T06:56:01.583Z,55.00
2023-03-18T06:59:10.845Z,54.89
2023-03-18T07:02:15.424Z,54.70
2023-03-18T07:05:20.772Z,54.55
2023-03-18T07:08:24.147Z,54.34
2023-03-18T07:11:27.781Z,54.33
2023-03-18T07:14:30.944Z,54.19
2023-03-18T07:17:35.038Z,53.95
2023-03-18T07:20:38.531Z,53.79
2023-03-18T07:23:41.683Z,53.72
2023-03-18T07:26:45.587Z,53.46
2023-03-18T07:29:48.513Z,53.33
2023-03-18T07:32:51.777Z,53.39
2023-03-18T07:35:55.481Z,53.36
2023-03-18T07:38:59.971Z,52.90
2023-03-18T07:42:03.154Z,52.78
2023-03-18T07:45:07.879Z,52.64
2023-03-18T07:48:10.982Z,52.34
2023-03-18T07:51:15.532Z,52.09
2023-03-18T07:54:18.665Z,51.82
2023-03-18T07:57:21.652Z,52.06
2023-03-18T08:00:25.711Z,52.00
2023-03-18T08:03:28.684Z,51.77
2023-03-18T08:06:32.968Z,51.67
2023-03-18T08:09:36.725Z,51.65
2023-03-18T08:12:52.030Z,50.81
2023-03-18T08:15:56.288Z,50.66
2023-03-18T08:18:59.712Z,49.76
2023-03-18T08:22:03.184Z,49.49
2023-03-18T08:25:06.610Z,48.78
2023-03-18T08:28:09.635Z,47.94
2023-03-18T08:31:14.326Z,47.20
2023-03-18T08:34:17.339Z,46.96
2023-03-18T08:37:20.282Z,46.43
2023-03-18T08:40:23.780Z,46.22
2023-03-18T08:43:27.234Z,45.79
2023-03-18T08:46:30.344Z,45.40
2023-03-18T08:49:33.708Z,45.04
2023-03-18T08:52:38.694Z,44.50
2023-03-18T08:55:42.336Z,44.53
2023-03-18T08:58:46.091Z,44.67
2023-03-18T09:01:49.316Z,43.86
2023-03-18T09:04:55.251Z,43.57
2023-03-18T09:07:58.906Z,43.70
2023-03-18T09:11:02.783Z,43.49
2023-03-18T09:14:06.873Z,43.41
2023-03-18T09:17:09.844Z,43.01
2023-03-18T09:20:15.312Z,42.54
2023-03-18T09:23:18.932Z,42.31
2023-03-18T09:26:22.099Z,42.28
2023-03-18T09:29:25.136Z,41.63
2023-03-18T09:32:28.346Z,41.20
2023-03-18T09:35:32.461Z,40.45
2023-03-18T09:38:36.608Z,40.25
2023-03-18T09:41:53.382Z,39.49
2023-03-18T09:45:02.435Z,38.97
2023-03-18T09:48:14.595Z,38.98
2023-03-18T09:51:23.057Z,38.67
2023-03-18T09:54:36.521Z,38.74
2023-03-18T09:57:45.433Z,38.63
2023-03-18T10:00:53.502Z,38.09
2023-03-18T10:04:21.457Z,37.94
2023-03-18T10:07:31.739Z,37.70
2023-03-18T10:10:39.125Z,37.62
2023-03-18T10:13:48.904Z,37.11
2023-03-18T10:17:16.467Z,36.68
2023-03-18T10:20:29.898Z,36.26
2023-03-18T10:23:49.717Z,35.99
2023-03-18T10:27:03.273Z,35.97
2023-03-18T10:30:34.794Z,35.44
2023-03-18T10:33:46.759Z,35.11
2023-03-18T10:36:55.722Z,34.75
2023-03-18T10:40:00.131Z,33.91
2023-03-18T10:43:04.297Z,33.94
2023-03-18T10:46:14.321Z,33.41
2023-03-18T10:49:23.985Z,33.53
2023-03-18T10:52:38.082Z,33.21
2023-03-18T10:55:54.901Z,32.67
2023-03-18T10:58:59.869Z,32.96
2023-03-18T11:02:06.377Z,32.79
2023-03-18T11:05:24.755Z,32.81
2023-03-18T11:08:40.121Z,32.76
2023-03-18T11:11:45.548Z,31.94
2023-03-18T11:14:50.444Z,31.55
2023-03-18T11:17:59.029Z,31.41
2023-03-18T11:21:04.770Z,31.48
2023-03-18T11:24:36.153Z,31.02
2023-03-18T11:27:40.593Z,31.12
2023-03-18T11:30:50.344Z,30.78
2023-03-18T11:33:59.080Z,30.34
2023-03-18T11:37:10.955Z,30.35
2023-03-18T11:40:14.106Z,30.09
2023-03-18T11:43:20.973Z,29.89
2023-03-18T11:46:26.509Z,29.73
2023-03-18T11:49:31.349Z,29.85
2023-03-18T11:52:48.879Z,29.55
2023-03-18T11:56:32.841Z,29.84
2023-03-18T11:59:47.616Z,29.16
2023-03-18T12:02:53.500Z,29.66
2023-03-18T12:06:11.270Z,29.35
2023-03-18T12:09:21.437Z,29.40
2023-03-18T12:12:44.568Z,28.99
2023-03-18T12:15:54.364Z,29.60
2023-03-18T12:19:25.210Z,28.75
2023-03-18T12:22:56.513Z,28.59
2023-03-18T12:26:32.431Z,28.09
2023-03-18T12:29:53.932Z,27.36
2023-03-18T12:33:10.861Z,26.94
2023-03-18T12:36:19.145Z,26.92
2023-03-18T12:39:48.435Z,26.75
2023-03-18T12:43:12.596Z,26.86
2023-03-18T12:46:27.463Z,26.55
2023-03-18T12:49:47.610Z,26.83
2023-03-18T12:53:00.295Z,27.23
2023-03-18T12:56:28.114Z,27.19
2023-03-18T12:59:38.579Z,27.06
2023-03-18T13:02:54.167Z,27.21
2023-03-18T13:06:12.253Z,27.47
2023-03-18T13:09:33.403Z,27.25
2023-03-18T13:12:41.866Z,27.33
2023-03-18T13:15:52.596Z,26.92
2023-03-18T13:18:57.510Z,26.91
2023-03-18T13:22:10.178Z,27.16
2023-03-18T13:25:24.930Z,27.47
2023-03-18T13:28:41.784Z,27.73
2023-03-18T13:31:59.089Z,27.83
2023-03-18T13:35:32.583Z,28.21
2023-03-18T13:38:54.132Z,28.10
2023-03-18T13:42:15.511Z,27.87
2023-03-18T13:45:33.872Z,27.79
2023-03-18T13:48:40.796Z,28.01
2023-03-18T13:51:53.711Z,28.09
2023-03-18T13:55:03.645Z,28.17
2023-03-18T13:58:16.338Z,27.80
2023-03-18T14:01:28.767Z,28.07
2023-03-18T14:04:46.079Z,27.75
2023-03-18T14:07:49.707Z,27.96
2023-03-18T14:11:16.677Z,27.72
2023-03-18T14:14:45.489Z,27.66
2023-03-18T14:17:56.973Z,27.69
2023-03-18T14:21:02.715Z,27.69
2023-03-18T14:24:33.314Z,27.58
2023-03-18T14:27:53.667Z,27.72
2023-03-18T14:31:45.437Z,28.09
2023-03-18T14:35:21.247Z,28.30
2023-03-18T14:38:57.651Z,28.39
2023-03-18T14:42:04.799Z,28.25
2023-03-18T14:45:33.690Z,28.40
2023-03-18T14:48:37.023Z,28.16
2023-03-18T14:51:40.410Z,27.90
2023-03-18T14:54:46.058Z,27.82
2023-03-18T14:57:52.766Z,27.84
2023-03-18T15:01:16.016Z,27.87
2023-03-18T15:04:25.046Z,27.70
2023-03-18T15:07:34.548Z,27.65
2023-03-18T15:10:38.830Z,27.69
2023-03-18T15:13:44.102Z,27.75
2023-03-18T15:17:00.252Z,27.81
2023-03-18T15:20:05.218Z,28.03
2023-03-18T15:23:11.761Z,28.14
2023-03-18T15:26:23.934Z,28.25
2023-03-18T15:29:36.401Z,28.23
2023-03-18T15:32:47.240Z,28.31
2023-03-18T15:36:13.996Z,28.58
2023-03-18T15:39:36.104Z,28.84
2023-03-18T15:42:39.106Z,29.05
2023-03-18T15:45:47.072Z,29.02
2023-03-18T15:48:56.737Z,29.16
2023-03-18T15:52:03.012Z,29.62
2023-03-18T15:55:37.544Z,29.63
2023-03-18T15:58:40.635Z,29.55
2023-03-18T16:01:44.087Z,29.57
2023-03-18T16:04:48.564Z,29.54
2023-03-18T16:07:55.054Z,29.52
2023-03-18T16:11:02.463Z,29.54
2023-03-18T16:14:06.050Z,29.94
2023-03-18T16:17:19.676Z,30.07
2023-03-18T16:20:30.144Z,30.37
2023-03-18T16:23:33.288Z,30.31
2023-03-18T16:26:36.913Z,30.24
2023-03-18T16:29:39.985Z,30.17
2023-03-18T16:32:43.320Z,30.55
2023-03-18T16:36:00.252Z,31.44
2023-03-18T16:39:15.238Z,31.82
2023-03-18T16:42:18.577Z,33.69
2023-03-18T16:45:28.676Z,33.70
2023-03-18T16:48:32.462Z,32.87
2023-03-18T16:51:35.457Z,34.48
2023-03-18T16:54:39.439Z,34.95
2023-03-18T16:57:47.309Z,35.24
2023-03-18T17:00:51.348Z,35.28
2023-03-18T17:03:54.586Z,35.96
2023-03-18T17:06:59.990Z,36.23
2023-03-18T17:10:04.033Z,36.04
2023-03-18T17:13:13.385Z,35.87
2023-03-18T17:16:20.062Z,36.18
2023-03-18T17:19:25.594Z,36.49
2023-03-18T17:22:32.488Z,36.43
2023-03-18T17:25:36.325Z,36.76
2023-03-18T17:28:46.179Z,36.96
2023-03-18T17:31:50.706Z,37.73
2023-03-18T17:34:54.387Z,37.47
2023-03-18T17:37:57.494Z,37.45
2023-03-18T17:41:20.198Z,37.79
2023-03-18T17:44:24.003Z,38.29
2023-03-18T17:47:27.171Z,38.65
2023-03-18T17:50:30.226Z,39.21
2023-03-18T17:53:45.724Z,39.65
2023-03-18T17:56:48.773Z,39.34
2023-03-18T17:59:53.101Z,38.36
2023-03-18T18:02:57.785Z,38.71
2023-03-18T18:06:01.544Z,39.35
2023-03-18T18:09:05.942Z,39.68
2023-03-18T18:12:16.564Z,40.00
2023-03-18T18:15:28.921Z,40.29
2023-03-18T18:18:34.267Z,40.53
2023-03-18T18:21:37.715Z,40.16
2023-03-18T18:24:46.982Z,38.84
2023-03-18T18:27:50.313Z,38.48
2023-03-18T18:30:53.453Z,39.15
2023-03-18T18:33:56.549Z,38.52
2023-03-18T18:36:59.567Z,39.47
2023-03-18T18:40:03.131Z,39.47
2023-03-18T18:43:06.433Z,39.82
2023-03-18T18:46:16.670Z,40.35
2023-03-18T18:49:23.160Z,40.55
2023-03-18T18:52:26.554Z,40.66
2023-03-18T18:55:30.501Z,40.89
2023-03-18T18:58:34.807Z,40.93
2023-03-18T19:01:37.815Z,40.79
2023-03-18T19:04:41.042Z,40.25
2023-03-18T19:07:45.496Z,39.73
2023-03-18T19:10:49.728Z,39.95
2023-03-18T19:13:53.671Z,40.09
2023-03-18T19:17:00.947Z,40.34
2023-03-18T19:20:25.141Z,40.38
2023-03-18T19:23:31.033Z,39.98
2023-03-18T19:26:34.144Z,40.55
2023-03-18T19:29:37.412Z,40.61
2023-03-18T19:32:40.410Z,40.47
2023-03-18T19:35:45.097Z,40.86
2023-03-18T19:38:50.322Z,40.95
2023-03-18T19:41:53.616Z,41.43
2023-03-18T19:44:56.776Z,41.98
2023-03-18T19:47:59.947Z,42.49
2023-03-18T19:51:04.294Z,42.13
2023-03-18T19:54:23.911Z,41.88
2023-03-18T19:57:29.582Z,42.57
2023-03-18T20:00:32.951Z,42.62
2023-03-18T20:03:36.132Z,43.12
2023-03-18T20:06:39.136Z,42.45
2023-03-18T20:09:42.478Z,42.71
2023-03-18T20:12:48.397Z,42.70
2023-03-18T20:15:51.427Z,42.84
2023-03-18T20:18:54.531Z,43.13
2023-03-18T20:21:58.313Z,42.57
2023-03-18T20:25:02.624Z,42.33
2023-03-18T20:28:08.126Z,41.92
2023-03-18T20:31:12.469Z,41.97
2023-03-18T20:34:15.969Z,42.00
2023-03-18T20:37:34.802Z,41.26
2023-03-18T20:40:38.983Z,40.98
2023-03-18T20:43:42.837Z,40.73
2023-03-18T20:46:46.118Z,40.37
2023-03-18T20:49:49.208Z,40.44
2023-03-18T20:52:53.405Z,40.53
2023-03-18T20:55:57.393Z,40.61
2023-03-18T20:59:00.650Z,40.66
2023-03-18T21:02:04.018Z,40.22
2023-03-18T21:05:08.090Z,40.23
2023-03-18T21:08:11.831Z,41.43
2023-03-18T21:11:21.957Z,40.77
2023-03-18T21:14:25.057Z,40.85
2023-03-18T21:17:28.474Z,41.07
2023-03-18T21:20:32.576Z,40.83
2023-03-18T21:23:36.824Z,41.14
2023-03-18T21:26:41.044Z,41.16
2023-03-18T21:29:44.509Z,40.59
2023-03-18T21:32:50.085Z,40.95
2023-03-18T21:35:56.931Z,40.14
2023-03-18T21:39:00.334Z,39.84
2023-03-18T21:42:03.893Z,39.63
2023-03-18T21:45:11.553Z,39.42
2023-03-18T21:48:15.701Z,39.27
2023-03-18T21:51:39.149Z,39.18
2023-03-18T21:54:42.952Z,38.98
2023-03-18T21:57:48.739Z,38.95
2023-03-18T22:00:58.035Z,38.88
2023-03-18T22:04:01.276Z,38.76
2023-03-18T22:07:04.516Z,38.93
2023-03-18T22:10:08.299Z,38.69
2023-03-18T22:13:22.828Z,38.66
2023-03-18T22:16:26.014Z,38.68
2023-03-18T22:19:29.048Z,38.55
2023-03-18T22:22:37.016Z,38.47
2023-03-18T22:25:41.764Z,38.33
2023-03-18T22:28:45.632Z,38.41
2023-03-18T22:31:48.891Z,38.61
2023-03-18T22:34:54.080Z,39.16
2023-03-18T22:37:57.275Z,39.40
2023-03-18T22:41:00.620Z,39.65
2023-03-18T22:44:04.529Z,39.65
2023-03-18T22:47:26.630Z,39.58
2023-03-18T22:50:32.275Z,39.63
2023-03-18T22:53:41.139Z,39.60
2023-03-18T22:56:44.175Z,40.27
2023-03-18T22:59:47.209Z,40.20
2023-03-18T23:02:51.204Z,40.30
2023-03-18T23:05:56.988Z,40.09
2023-03-18T23:09:00.020Z,40.40
2023-03-18T23:12:03.190Z,40.48
2023-03-18T23:15:07.417Z,40.55
2023-03-18T23:18:18.016Z,40.82
2023-03-18T23:21:23.468Z,40.92
2023-03-18T23:24:26.495Z,41.03
2023-03-18T23:27:29.697Z,41.18
2023-03-18T23:30:34.606Z,41.80
2023-03-18T23:33:38.330Z,41.81
2023-03-18T23:36:41.791Z,42.11
2023-03-18T23:39:46.332Z,42.29
2023-03-18T23:42:49.505Z,42.33
2023-03-18T23:45:52.647Z,42.41
2023-03-18T23:48:55.805Z,42.67
2023-03-18T23:52:00.450Z,42.89
2023-03-18T23:55:12.236Z,42.94
2023-03-18T23:58:21.616Z,43.25
